sensor_id;sensor_type;location;lat;lon;timestamp;P1;durP1;ratioP1;P2;durP2;ratioP2
41261;SDS011;29629;52.532;13.352;2022-11-06T00:00:38;13.27;;;3.80;;
41261;SDS011;29629;52.532;13.352;2022-11-06T00:03:06;31.40;;;8.30;;
41261;SDS011;29629;52.532;13.352;2022-11-06T00:05:33;14.85;;;8.05;;
41261;SDS011;29629;52.532;13.352;2022-11-06T00:08:25;20.27;;;5.30;;
41261;SDS011;29629;52.532;13.352;2022-11-06T00:10:54;17.20;;;4.72;;
41261;SDS011;29629;52.532;13.352;2022-11-06T00:13:21;12.57;;;4.25;;
41261;SDS011;29629;52.532;13.352;2022-11-06T00:15:48;12.48;;;4.07;;
41261;SDS011;29629;52.532;13.352;2022-11-06T00:18:15;37.47;;;9.18;;
41261;SDS011;29629;52.532;13.352;2022-11-06T00:20:42;14.10;;;3.80;;
41261;SDS011;29629;52.532;13.352;2022-11-06T00:23:08;21.55;;;5.97;;
41261;SDS011;29629;52.532;13.352;2022-11-06T00:25:38;24.52;;;6.07;;
41261;SDS011;29629;52.532;13.352;2022-11-06T00:28:07;25.55;;;6.97;;
41261;SDS011;29629;52.532;13.352;2022-11-06T00:30:34;16.35;;;5.93;;
41261;SDS011;29629;52.532;13.352;2022-11-06T00:33:01;21.67;;;5.82;;
41261;SDS011;29629;52.532;13.352;2022-11-06T00:35:27;19.42;;;4.50;;
41261;SDS011;29629;52.532;13.352;2022-11-06T00:37:54;15.80;;;4.47;;
41261;SDS011;29629;52.532;13.352;2022-11-06T00:40:21;13.93;;;10.73;;
41261;SDS011;29629;52.532;13.352;2022-11-06T00:42:52;24.88;;;7.05;;
41261;SDS011;29629;52.532;13.352;2022-11-06T00:45:21;29.20;;;9.40;;
41261;SDS011;29629;52.532;13.352;2022-11-06T00:47:48;17.15;;;4.75;;
41261;SDS011;29629;52.532;13.352;2022-11-06T00:50:15;20.17;;;6.18;;
41261;SDS011;29629;52.532;13.352;2022-11-06T00:52:42;21.83;;;6.22;;
41261;SDS011;29629;52.532;13.352;2022-11-06T00:55:09;26.75;;;6.30;;
41261;SDS011;29629;52.532;13.352;2022-11-06T00:57:36;14.65;;;4.03;;
41261;SDS011;29629;52.532;13.352;2022-11-06T01:00:03;25.33;;;7.15;;
41261;SDS011;29629;52.532;13.352;2022-11-06T01:02:32;15.95;;;4.88;;
41261;SDS011;29629;52.532;13.352;2022-11-06T01:04:59;24.48;;;6.00;;
41261;SDS011;29629;52.532;13.352;2022-11-06T01:07:26;13.00;;;4.43;;
41261;SDS011;29629;52.532;13.352;2022-11-06T01:09:53;23.88;;;6.85;;
41261;SDS011;29629;52.532;13.352;2022-11-06T01:12:19;22.55;;;7.22;;
41261;SDS011;29629;52.532;13.352;2022-11-06T01:14:46;15.52;;;3.63;;
41261;SDS011;29629;52.532;13.352;2022-11-06T01:17:13;17.23;;;4.72;;
41261;SDS011;29629;52.532;13.352;2022-11-06T01:19:41;6.10;;;2.88;;
41261;SDS011;29629;52.532;13.352;2022-11-06T01:22:08;24.73;;;6.38;;
41261;SDS011;29629;52.532;13.352;2022-11-06T01:24:34;30.30;;;8.65;;
41261;SDS011;29629;52.532;13.352;2022-11-06T01:27:01;20.25;;;5.65;;
41261;SDS011;29629;52.532;13.352;2022-11-06T01:29:28;20.15;;;5.75;;
41261;SDS011;29629;52.532;13.352;2022-11-06T01:31:55;26.63;;;6.95;;
41261;SDS011;29629;52.532;13.352;2022-11-06T01:34:22;18.98;;;5.80;;
41261;SDS011;29629;52.532;13.352;2022-11-06T01:36:50;11.80;;;3.58;;
41261;SDS011;29629;52.532;13.352;2022-11-06T01:39:17;26.05;;;6.13;;
41261;SDS011;29629;52.532;13.352;2022-11-06T01:41:46;19.85;;;5.10;;
41261;SDS011;29629;52.532;13.352;2022-11-06T01:47:20;8.95;;;3.25;;
41261;SDS011;29629;52.532;13.352;2022-11-06T01:49:48;18.42;;;4.80;;
41261;SDS011;29629;52.532;13.352;2022-11-06T01:52:19;6.18;;;2.63;;
41261;SDS011;29629;52.532;13.352;2022-11-06T01:54:48;16.75;;;4.65;;
41261;SDS011;29629;52.532;13.352;2022-11-06T01:57:18;3.65;;;2.65;;
41261;SDS011;29629;52.532;13.352;2022-11-06T01:59:45;22.33;;;6.03;;
41261;SDS011;29629;52.532;13.352;2022-11-06T02:02:13;19.67;;;5.20;;
41261;SDS011;29629;52.532;13.352;2022-11-06T02:04:42;18.42;;;4.93;;
41261;SDS011;29629;52.532;13.352;2022-11-06T02:07:10;13.32;;;4.75;;
41261;SDS011;29629;52.532;13.352;2022-11-06T02:09:38;19.48;;;5.13;;
41261;SDS011;29629;52.532;13.352;2022-11-06T02:12:07;14.30;;;4.47;;
41261;SDS011;29629;52.532;13.352;2022-11-06T02:14:45;14.85;;;4.13;;
41261;SDS011;29629;52.532;13.352;2022-11-06T02:17:22;15.25;;;4.00;;
41261;SDS011;29629;52.532;13.352;2022-11-06T02:19:58;6.22;;;1.85;;
41261;SDS011;29629;52.532;13.352;2022-11-06T02:22:34;4.28;;;1.80;;
41261;SDS011;29629;52.532;13.352;2022-11-06T02:25:18;12.00;;;3.88;;
41261;SDS011;29629;52.532;13.352;2022-11-06T02:27:53;18.58;;;5.97;;
41261;SDS011;29629;52.532;13.352;2022-11-06T02:32:55;14.25;;;4.63;;
41261;SDS011;29629;52.532;13.352;2022-11-06T02:35:25;17.13;;;4.82;;
41261;SDS011;29629;52.532;13.352;2022-11-06T02:37:56;17.02;;;4.60;;
41261;SDS011;29629;52.532;13.352;2022-11-06T02:40:27;16.38;;;5.35;;
41261;SDS011;29629;52.532;13.352;2022-11-06T02:42:59;14.07;;;4.78;;
41261;SDS011;29629;52.532;13.352;2022-11-06T02:45:29;16.05;;;4.28;;
41261;SDS011;29629;52.532;13.352;2022-11-06T02:48:01;21.70;;;5.72;;
41261;SDS011;29629;52.532;13.352;2022-11-06T02:50:31;17.13;;;4.68;;
41261;SDS011;29629;52.532;13.352;2022-11-06T02:53:03;18.33;;;5.35;;
41261;SDS011;29629;52.532;13.352;2022-11-06T02:55:33;18.88;;;5.30;;
41261;SDS011;29629;52.532;13.352;2022-11-06T02:58:06;15.70;;;4.35;;
41261;SDS011;29629;52.532;13.352;2022-11-06T03:00:36;4.78;;;2.60;;
41261;SDS011;29629;52.532;13.352;2022-11-06T03:03:08;13.45;;;3.03;;
41261;SDS011;29629;52.532;13.352;2022-11-06T03:05:42;20.20;;;4.78;;
41261;SDS011;29629;52.532;13.352;2022-11-06T03:08:14;13.70;;;4.40;;
41261;SDS011;29629;52.532;13.352;2022-11-06T03:10:48;19.88;;;5.55;;
41261;SDS011;29629;52.532;13.352;2022-11-06T03:13:21;18.63;;;5.30;;
41261;SDS011;29629;52.532;13.352;2022-11-06T03:15:55;18.88;;;4.95;;
41261;SDS011;29629;52.532;13.352;2022-11-06T03:18:31;14.05;;;4.50;;
41261;SDS011;29629;52.532;13.352;2022-11-06T03:21:04;12.23;;;3.70;;
41261;SDS011;29629;52.532;13.352;2022-11-06T03:23:34;7.13;;;3.08;;
41261;SDS011;29629;52.532;13.352;2022-11-06T03:26:08;16.25;;;4.72;;
41261;SDS011;29629;52.532;13.352;2022-11-06T03:28:42;15.23;;;4.78;;
41261;SDS011;29629;52.532;13.352;2022-11-06T03:31:16;19.35;;;5.55;;
41261;SDS011;29629;52.532;13.352;2022-11-06T03:33:49;41.40;;;14.32;;
41261;SDS011;29629;52.532;13.352;2022-11-06T03:36:20;22.95;;;7.93;;
41261;SDS011;29629;52.532;13.352;2022-11-06T03:38:51;14.10;;;5.18;;
41261;SDS011;29629;52.532;13.352;2022-11-06T03:41:25;21.27;;;8.32;;
41261;SDS011;29629;52.532;13.352;2022-11-06T03:43:58;33.33;;;11.57;;
41261;SDS011;29629;52.532;13.352;2022-11-06T03:46:28;23.00;;;8.90;;
41261;SDS011;29629;52.532;13.352;2022-11-06T03:48:55;19.40;;;8.00;;
41261;SDS011;29629;52.532;13.352;2022-11-06T03:51:25;22.85;;;8.63;;
41261;SDS011;29629;52.532;13.352;2022-11-06T03:53:58;32.22;;;11.02;;
41261;SDS011;29629;52.532;13.352;2022-11-06T03:56:27;21.63;;;7.95;;
41261;SDS011;29629;52.532;13.352;2022-11-06T03:59:02;13.07;;;6.72;;
41261;SDS011;29629;52.532;13.352;2022-11-06T04:01:32;29.42;;;7.70;;
41261;SDS011;29629;52.532;13.352;2022-11-06T04:04:03;20.05;;;8.32;;
41261;SDS011;29629;52.532;13.352;2022-11-06T04:06:36;15.25;;;6.93;;
41261;SDS011;29629;52.532;13.352;2022-11-06T04:09:08;20.63;;;9.38;;
41261;SDS011;29629;52.532;13.352;2022-11-06T04:11:56;18.00;;;6.97;;
41261;SDS011;29629;52.532;13.352;2022-11-06T04:14:46;15.57;;;5.72;;
41261;SDS011;29629;52.532;13.352;2022-11-06T04:17:16;22.75;;;9.10;;
41261;SDS011;29629;52.532;13.352;2022-11-06T04:19:46;19.65;;;7.90;;
41261;SDS011;29629;52.532;13.352;2022-11-06T04:22:18;20.10;;;7.05;;
41261;SDS011;29629;52.532;13.352;2022-11-06T04:24:56;20.58;;;7.88;;
41261;SDS011;29629;52.532;13.352;2022-11-06T04:27:49;19.30;;;9.30;;
41261;SDS011;29629;52.532;13.352;2022-11-06T04:30:24;8.48;;;6.20;;
41261;SDS011;29629;52.532;13.352;2022-11-06T04:32:56;19.02;;;7.93;;
41261;SDS011;29629;52.532;13.352;2022-11-06T04:35:33;17.73;;;7.70;;
41261;SDS011;29629;52.532;13.352;2022-11-06T04:38:10;21.38;;;8.32;;
41261;SDS011;29629;52.532;13.352;2022-11-06T04:40:46;21.75;;;8.15;;
41261;SDS011;29629;52.532;13.352;2022-11-06T04:43:20;13.15;;;6.70;;
41261;SDS011;29629;52.532;13.352;2022-11-06T04:45:54;18.38;;;7.55;;
41261;SDS011;29629;52.532;13.352;2022-11-06T04:48:23;19.80;;;8.32;;
41261;SDS011;29629;52.532;13.352;2022-11-06T04:50:51;14.80;;;5.90;;
41261;SDS011;29629;52.532;13.352;2022-11-06T04:53:21;17.90;;;7.45;;
41261;SDS011;29629;52.532;13.352;2022-11-06T04:55:50;19.92;;;8.15;;
41261;SDS011;29629;52.532;13.352;2022-11-06T04:58:19;21.35;;;9.18;;
41261;SDS011;29629;52.532;13.352;2022-11-06T05:00:47;25.13;;;8.88;;
41261;SDS011;29629;52.532;13.352;2022-11-06T05:03:16;21.05;;;7.50;;
41261;SDS011;29629;52.532;13.352;2022-11-06T05:05:44;25.92;;;8.25;;
41261;SDS011;29629;52.532;13.352;2022-11-06T05:08:12;14.30;;;5.75;;
41261;SDS011;29629;52.532;13.352;2022-11-06T05:10:40;20.60;;;8.55;;
41261;SDS011;29629;52.532;13.352;2022-11-06T05:13:07;21.77;;;11.15;;
41261;SDS011;29629;52.532;13.352;2022-11-06T05:15:34;17.10;;;7.90;;
41261;SDS011;29629;52.532;13.352;2022-11-06T05:18:01;18.92;;;8.75;;
41261;SDS011;29629;52.532;13.352;2022-11-06T05:20:30;19.73;;;8.77;;
41261;SDS011;29629;52.532;13.352;2022-11-06T05:22:57;19.55;;;7.72;;
41261;SDS011;29629;52.532;13.352;2022-11-06T05:25:24;25.48;;;10.45;;
41261;SDS011;29629;52.532;13.352;2022-11-06T05:27:52;18.08;;;7.85;;
41261;SDS011;29629;52.532;13.352;2022-11-06T05:30:19;19.70;;;7.28;;
41261;SDS011;29629;52.532;13.352;2022-11-06T05:32:46;11.40;;;6.93;;
41261;SDS011;29629;52.532;13.352;2022-11-06T05:35:13;20.35;;;8.75;;
41261;SDS011;29629;52.532;13.352;2022-11-06T05:37:41;16.42;;;7.22;;
41261;SDS011;29629;52.532;13.352;2022-11-06T05:40:08;18.48;;;7.80;;
41261;SDS011;29629;52.532;13.352;2022-11-06T05:42:36;10.77;;;6.15;;
41261;SDS011;29629;52.532;13.352;2022-11-06T05:45:03;19.35;;;7.82;;
41261;SDS011;29629;52.532;13.352;2022-11-06T05:47:31;22.92;;;8.38;;
41261;SDS011;29629;52.532;13.352;2022-11-06T05:49:58;20.45;;;6.03;;
41261;SDS011;29629;52.532;13.352;2022-11-06T05:52:25;17.33;;;6.63;;
41261;SDS011;29629;52.532;13.352;2022-11-06T05:54:53;13.85;;;6.03;;
41261;SDS011;29629;52.532;13.352;2022-11-06T05:57:20;21.25;;;8.45;;
41261;SDS011;29629;52.532;13.352;2022-11-06T05:59:47;22.50;;;8.02;;
41261;SDS011;29629;52.532;13.352;2022-11-06T06:02:14;18.67;;;7.50;;
41261;SDS011;29629;52.532;13.352;2022-11-06T06:04:40;18.50;;;7.18;;
41261;SDS011;29629;52.532;13.352;2022-11-06T06:07:07;18.88;;;6.70;;
41261;SDS011;29629;52.532;13.352;2022-11-06T06:09:34;18.55;;;6.93;;
41261;SDS011;29629;52.532;13.352;2022-11-06T06:12:02;25.27;;;9.32;;
41261;SDS011;29629;52.532;13.352;2022-11-06T06:14:29;13.25;;;6.22;;
41261;SDS011;29629;52.532;13.352;2022-11-06T06:16:56;22.20;;;8.15;;
41261;SDS011;29629;52.532;13.352;2022-11-06T06:19:23;20.05;;;8.73;;
41261;SDS011;29629;52.532;13.352;2022-11-06T06:21:49;17.23;;;7.78;;
41261;SDS011;29629;52.532;13.352;2022-11-06T06:24:16;17.70;;;9.15;;
41261;SDS011;29629;52.532;13.352;2022-11-06T06:26:43;16.05;;;7.75;;
41261;SDS011;29629;52.532;13.352;2022-11-06T06:29:11;14.98;;;5.70;;
41261;SDS011;29629;52.532;13.352;2022-11-06T06:31:38;14.32;;;7.47;;
41261;SDS011;29629;52.532;13.352;2022-11-06T06:34:05;15.25;;;7.70;;
41261;SDS011;29629;52.532;13.352;2022-11-06T06:36:32;15.35;;;7.35;;
41261;SDS011;29629;52.532;13.352;2022-11-06T06:38:59;12.40;;;7.45;;
41261;SDS011;29629;52.532;13.352;2022-11-06T06:41:25;22.58;;;9.07;;
41261;SDS011;29629;52.532;13.352;2022-11-06T06:43:52;29.58;;;10.30;;
41261;SDS011;29629;52.532;13.352;2022-11-06T06:46:20;16.55;;;8.25;;
41261;SDS011;29629;52.532;13.352;2022-11-06T06:48:47;21.25;;;9.30;;
41261;SDS011;29629;52.532;13.352;2022-11-06T06:51:14;15.38;;;7.60;;
41261;SDS011;29629;52.532;13.352;2022-11-06T06:53:40;16.08;;;7.75;;
41261;SDS011;29629;52.532;13.352;2022-11-06T06:56:08;18.08;;;7.45;;
41261;SDS011;29629;52.532;13.352;2022-11-06T06:58:35;18.33;;;6.68;;
41261;SDS011;29629;52.532;13.352;2022-11-06T07:01:02;15.80;;;7.10;;
41261;SDS011;29629;52.532;13.352;2022-11-06T07:03:31;13.10;;;6.35;;
41261;SDS011;29629;52.532;13.352;2022-11-06T07:05:58;11.75;;;6.05;;
41261;SDS011;29629;52.532;13.352;2022-11-06T07:08:25;22.65;;;7.15;;
41261;SDS011;29629;52.532;13.352;2022-11-06T07:10:56;24.67;;;9.13;;
41261;SDS011;29629;52.532;13.352;2022-11-06T07:13:24;21.45;;;8.20;;
41261;SDS011;29629;52.532;13.352;2022-11-06T07:15:51;14.52;;;6.75;;
41261;SDS011;29629;52.532;13.352;2022-11-06T07:18:18;15.38;;;7.22;;
41261;SDS011;29629;52.532;13.352;2022-11-06T07:20:46;19.67;;;9.15;;
41261;SDS011;29629;52.532;13.352;2022-11-06T07:23:13;22.50;;;7.93;;
41261;SDS011;29629;52.532;13.352;2022-11-06T07:25:40;14.45;;;7.20;;
41261;SDS011;29629;52.532;13.352;2022-11-06T07:28:07;16.83;;;7.90;;
41261;SDS011;29629;52.532;13.352;2022-11-06T07:30:34;18.08;;;8.40;;
41261;SDS011;29629;52.532;13.352;2022-11-06T07:33:01;18.25;;;9.07;;
41261;SDS011;29629;52.532;13.352;2022-11-06T07:35:29;24.70;;;9.32;;
41261;SDS011;29629;52.532;13.352;2022-11-06T07:37:57;25.50;;;9.68;;
41261;SDS011;29629;52.532;13.352;2022-11-06T07:40:27;19.60;;;8.88;;
41261;SDS011;29629;52.532;13.352;2022-11-06T07:42:54;14.80;;;6.40;;
41261;SDS011;29629;52.532;13.352;2022-11-06T07:45:21;22.42;;;8.43;;
41261;SDS011;29629;52.532;13.352;2022-11-06T07:47:48;20.13;;;7.68;;
41261;SDS011;29629;52.532;13.352;2022-11-06T07:50:14;8.55;;;6.10;;
41261;SDS011;29629;52.532;13.352;2022-11-06T07:52:41;31.10;;;12.60;;
41261;SDS011;29629;52.532;13.352;2022-11-06T07:55:09;18.70;;;9.65;;
41261;SDS011;29629;52.532;13.352;2022-11-06T07:57:36;11.45;;;7.68;;
41261;SDS011;29629;52.532;13.352;2022-11-06T08:00:03;20.60;;;8.43;;
41261;SDS011;29629;52.532;13.352;2022-11-06T08:02:31;17.30;;;8.77;;
41261;SDS011;29629;52.532;13.352;2022-11-06T08:04:57;17.95;;;6.90;;
41261;SDS011;29629;52.532;13.352;2022-11-06T08:07:24;19.92;;;8.55;;
41261;SDS011;29629;52.532;13.352;2022-11-06T08:09:51;19.67;;;8.35;;
41261;SDS011;29629;52.532;13.352;2022-11-06T08:12:19;17.63;;;7.57;;
41261;SDS011;29629;52.532;13.352;2022-11-06T08:14:46;20.42;;;8.55;;
41261;SDS011;29629;52.532;13.352;2022-11-06T08:17:12;18.23;;;7.38;;
41261;SDS011;29629;52.532;13.352;2022-11-06T08:19:39;17.58;;;7.03;;
41261;SDS011;29629;52.532;13.352;2022-11-06T08:22:06;21.70;;;6.78;;
41261;SDS011;29629;52.532;13.352;2022-11-06T08:24:33;15.63;;;5.60;;
41261;SDS011;29629;52.532;13.352;2022-11-06T08:27:00;17.85;;;6.70;;
41261;SDS011;29629;52.532;13.352;2022-11-06T08:29:29;22.65;;;7.95;;
41261;SDS011;29629;52.532;13.352;2022-11-06T08:31:55;16.42;;;5.57;;
41261;SDS011;29629;52.532;13.352;2022-11-06T08:34:22;18.80;;;6.55;;
41261;SDS011;29629;52.532;13.352;2022-11-06T08:36:49;22.60;;;8.32;;
41261;SDS011;29629;52.532;13.352;2022-11-06T08:39:16;15.65;;;7.28;;
41261;SDS011;29629;52.532;13.352;2022-11-06T08:41:43;24.55;;;13.75;;
41261;SDS011;29629;52.532;13.352;2022-11-06T08:44:10;17.45;;;8.52;;
41261;SDS011;29629;52.532;13.352;2022-11-06T08:46:38;27.40;;;24.10;;
41261;SDS011;29629;52.532;13.352;2022-11-06T08:49:05;24.45;;;19.58;;
41261;SDS011;29629;52.532;13.352;2022-11-06T08:51:31;39.63;;;36.17;;
41261;SDS011;29629;52.532;13.352;2022-11-06T08:53:58;50.72;;;47.13;;
41261;SDS011;29629;52.532;13.352;2022-11-06T08:56:25;35.63;;;32.80;;
41261;SDS011;29629;52.532;13.352;2022-11-06T08:58:52;46.28;;;42.45;;
41261;SDS011;29629;52.532;13.352;2022-11-06T09:01:18;31.90;;;29.90;;
41261;SDS011;29629;52.532;13.352;2022-11-06T09:03:49;45.13;;;41.42;;
41261;SDS011;29629;52.532;13.352;2022-11-06T09:06:15;43.00;;;39.55;;
41261;SDS011;29629;52.532;13.352;2022-11-06T09:08:42;39.13;;;36.17;;
41261;SDS011;29629;52.532;13.352;2022-11-06T09:11:09;40.42;;;37.70;;
41261;SDS011;29629;52.532;13.352;2022-11-06T09:13:37;55.00;;;50.60;;
41261;SDS011;29629;52.532;13.352;2022-11-06T09:16:04;72.47;;;68.60;;
41261;SDS011;29629;52.532;13.352;2022-11-06T09:18:31;68.57;;;64.57;;
41261;SDS011;29629;52.532;13.352;2022-11-06T09:20:59;87.38;;;81.80;;
41261;SDS011;29629;52.532;13.352;2022-11-06T09:23:26;33.72;;;30.67;;
41261;SDS011;29629;52.532;13.352;2022-11-06T09:25:53;54.45;;;50.88;;
41261;SDS011;29629;52.532;13.352;2022-11-06T09:28:21;29.17;;;25.00;;
41261;SDS011;29629;52.532;13.352;2022-11-06T09:30:48;18.63;;;9.32;;
41261;SDS011;29629;52.532;13.352;2022-11-06T09:33:15;20.88;;;7.05;;
41261;SDS011;29629;52.532;13.352;2022-11-06T09:35:42;15.85;;;4.65;;
41261;SDS011;29629;52.532;13.352;2022-11-06T09:38:12;16.27;;;4.43;;
41261;SDS011;29629;52.532;13.352;2022-11-06T09:40:39;20.67;;;6.32;;
41261;SDS011;29629;52.532;13.352;2022-11-06T09:46:03;14.38;;;5.53;;
41261;SDS011;29629;52.532;13.352;2022-11-06T09:48:33;24.45;;;4.70;;
41261;SDS011;29629;52.532;13.352;2022-11-06T09:51:05;30.02;;;6.65;;
41261;SDS011;29629;52.532;13.352;2022-11-06T09:53:45;15.13;;;5.43;;
41261;SDS011;29629;52.532;13.352;2022-11-06T09:56:16;22.52;;;5.93;;
41261;SDS011;29629;52.532;13.352;2022-11-06T09:58:44;15.40;;;6.90;;
41261;SDS011;29629;52.532;13.352;2022-11-06T10:01:14;21.20;;;8.43;;
41261;SDS011;29629;52.532;13.352;2022-11-06T10:03:44;14.63;;;5.18;;
41261;SDS011;29629;52.532;13.352;2022-11-06T10:06:14;15.38;;;5.38;;
41261;SDS011;29629;52.532;13.352;2022-11-06T10:08:47;17.67;;;5.22;;
41261;SDS011;29629;52.532;13.352;2022-11-06T10:11:22;16.75;;;6.13;;
41261;SDS011;29629;52.532;13.352;2022-11-06T10:14:00;40.63;;;11.35;;
41261;SDS011;29629;52.532;13.352;2022-11-06T10:16:37;15.68;;;5.53;;
41261;SDS011;29629;52.532;13.352;2022-11-06T10:19:10;15.10;;;6.30;;
41261;SDS011;29629;52.532;13.352;2022-11-06T10:21:44;15.85;;;4.93;;
41261;SDS011;29629;52.532;13.352;2022-11-06T10:24:21;18.83;;;6.20;;
41261;SDS011;29629;52.532;13.352;2022-11-06T10:26:53;22.17;;;6.25;;
41261;SDS011;29629;52.532;13.352;2022-11-06T10:29:25;11.18;;;3.65;;
41261;SDS011;29629;52.532;13.352;2022-11-06T10:32:21;16.17;;;5.13;;
41261;SDS011;29629;52.532;13.352;2022-11-06T10:35:12;18.45;;;5.88;;
41261;SDS011;29629;52.532;13.352;2022-11-06T10:37:46;16.90;;;5.57;;
41261;SDS011;29629;52.532;13.352;2022-11-06T10:40:18;23.67;;;6.65;;
41261;SDS011;29629;52.532;13.352;2022-11-06T10:42:50;25.70;;;6.45;;
41261;SDS011;29629;52.532;13.352;2022-11-06T10:45:21;18.27;;;5.55;;
41261;SDS011;29629;52.532;13.352;2022-11-06T10:47:53;17.60;;;6.28;;
41261;SDS011;29629;52.532;13.352;2022-11-06T10:50:23;20.05;;;5.00;;
41261;SDS011;29629;52.532;13.352;2022-11-06T10:53:01;13.82;;;4.70;;
41261;SDS011;29629;52.532;13.352;2022-11-06T10:58:30;13.48;;;4.80;;
41261;SDS011;29629;52.532;13.352;2022-11-06T11:00:59;18.58;;;5.32;;
41261;SDS011;29629;52.532;13.352;2022-11-06T11:03:28;25.25;;;6.25;;
41261;SDS011;29629;52.532;13.352;2022-11-06T11:05:57;17.10;;;6.03;;
41261;SDS011;29629;52.532;13.352;2022-11-06T11:08:32;16.98;;;5.70;;
41261;SDS011;29629;52.532;13.352;2022-11-06T11:11:03;15.80;;;5.28;;
41261;SDS011;29629;52.532;13.352;2022-11-06T11:13:31;23.92;;;7.03;;
41261;SDS011;29629;52.532;13.352;2022-11-06T11:15:58;19.83;;;6.10;;
41261;SDS011;29629;52.532;13.352;2022-11-06T11:18:27;22.00;;;6.47;;
41261;SDS011;29629;52.532;13.352;2022-11-06T11:21:12;32.08;;;8.93;;
41261;SDS011;29629;52.532;13.352;2022-11-06T11:23:45;12.88;;;6.65;;
41261;SDS011;29629;52.532;13.352;2022-11-06T11:26:34;18.02;;;4.93;;
41261;SDS011;29629;52.532;13.352;2022-11-06T11:29:10;13.90;;;4.97;;
41261;SDS011;29629;52.532;13.352;2022-11-06T11:31:42;16.75;;;5.18;;
41261;SDS011;29629;52.532;13.352;2022-11-06T11:34:16;12.88;;;4.45;;
41261;SDS011;29629;52.532;13.352;2022-11-06T11:36:52;5.60;;;2.55;;
41261;SDS011;29629;52.532;13.352;2022-11-06T11:39:28;22.88;;;6.25;;
41261;SDS011;29629;52.532;13.352;2022-11-06T11:42:16;18.60;;;5.72;;
41261;SDS011;29629;52.532;13.352;2022-11-06T11:47:42;33.58;;;8.68;;
41261;SDS011;29629;52.532;13.352;2022-11-06T11:50:29;21.70;;;5.75;;
41261;SDS011;29629;52.532;13.352;2022-11-06T11:52:58;15.27;;;4.75;;
41261;SDS011;29629;52.532;13.352;2022-11-06T11:55:29;23.67;;;7.72;;
41261;SDS011;29629;52.532;13.352;2022-11-06T11:58:05;19.58;;;6.68;;
41261;SDS011;29629;52.532;13.352;2022-11-06T12:00:48;35.80;;;10.90;;
41261;SDS011;29629;52.532;13.352;2022-11-06T12:03:18;25.35;;;7.00;;
41261;SDS011;29629;52.532;13.352;2022-11-06T12:05:47;23.80;;;6.32;;
41261;SDS011;29629;52.532;13.352;2022-11-06T12:08:20;29.73;;;7.88;;
41261;SDS011;29629;52.532;13.352;2022-11-06T12:10:48;15.02;;;5.40;;
41261;SDS011;29629;52.532;13.352;2022-11-06T12:13:17;23.20;;;6.43;;
41261;SDS011;29629;52.532;13.352;2022-11-06T12:15:46;18.70;;;6.40;;
41261;SDS011;29629;52.532;13.352;2022-11-06T12:18:19;22.67;;;7.13;;
41261;SDS011;29629;52.532;13.352;2022-11-06T12:20:49;22.27;;;9.35;;
41261;SDS011;29629;52.532;13.352;2022-11-06T12:23:23;16.02;;;7.85;;
41261;SDS011;29629;52.532;13.352;2022-11-06T12:25:55;13.90;;;5.95;;
41261;SDS011;29629;52.532;13.352;2022-11-06T12:28:30;23.35;;;10.65;;
41261;SDS011;29629;52.532;13.352;2022-11-06T12:31:02;24.48;;;10.80;;
41261;SDS011;29629;52.532;13.352;2022-11-06T12:33:34;29.25;;;15.35;;
41261;SDS011;29629;52.532;13.352;2022-11-06T12:36:06;23.35;;;19.73;;
41261;SDS011;29629;52.532;13.352;2022-11-06T12:38:37;26.15;;;19.88;;
41261;SDS011;29629;52.532;13.352;2022-11-06T12:41:10;14.20;;;11.82;;
41261;SDS011;29629;52.532;13.352;2022-11-06T12:43:43;13.93;;;5.40;;
41261;SDS011;29629;52.532;13.352;2022-11-06T12:46:18;14.63;;;5.47;;
41261;SDS011;29629;52.532;13.352;2022-11-06T12:49:02;12.38;;;6.90;;
41261;SDS011;29629;52.532;13.352;2022-11-06T12:51:57;20.45;;;8.45;;
41261;SDS011;29629;52.532;13.352;2022-11-06T12:54:39;4.63;;;4.03;;
41261;SDS011;29629;52.532;13.352;2022-11-06T12:57:17;14.25;;;6.57;;
41261;SDS011;29629;52.532;13.352;2022-11-06T12:59:57;13.85;;;7.93;;
41261;SDS011;29629;52.532;13.352;2022-11-06T13:02:34;24.30;;;8.75;;
41261;SDS011;29629;52.532;13.352;2022-11-06T13:05:17;18.27;;;5.30;;
41261;SDS011;29629;52.532;13.352;2022-11-06T13:08:03;11.77;;;5.85;;
41261;SDS011;29629;52.532;13.352;2022-11-06T13:10:43;10.88;;;4.50;;
41261;SDS011;29629;52.532;13.352;2022-11-06T13:13:23;18.85;;;6.47;;
41261;SDS011;29629;52.532;13.352;2022-11-06T13:15:59;5.80;;;4.68;;
41261;SDS011;29629;52.532;13.352;2022-11-06T13:18:33;20.75;;;6.85;;
41261;SDS011;29629;52.532;13.352;2022-11-06T13:21:05;15.95;;;5.20;;
41261;SDS011;29629;52.532;13.352;2022-11-06T13:23:36;23.10;;;7.35;;
41261;SDS011;29629;52.532;13.352;2022-11-06T13:26:08;17.85;;;5.63;;
41261;SDS011;29629;52.532;13.352;2022-11-06T13:28:41;15.77;;;5.20;;
41261;SDS011;29629;52.532;13.352;2022-11-06T13:31:14;13.85;;;4.10;;
41261;SDS011;29629;52.532;13.352;2022-11-06T13:33:44;22.23;;;6.55;;
41261;SDS011;29629;52.532;13.352;2022-11-06T13:36:14;13.73;;;5.13;;
41261;SDS011;29629;52.532;13.352;2022-11-06T13:38:45;12.82;;;4.43;;
41261;SDS011;29629;52.532;13.352;2022-11-06T13:41:17;12.82;;;4.60;;
41261;SDS011;29629;52.532;13.352;2022-11-06T13:43:47;20.58;;;6.68;;
41261;SDS011;29629;52.532;13.352;2022-11-06T13:46:20;17.35;;;6.32;;
41261;SDS011;29629;52.532;13.352;2022-11-06T13:48:55;17.67;;;5.72;;
41261;SDS011;29629;52.532;13.352;2022-11-06T13:51:33;22.52;;;6.30;;
41261;SDS011;29629;52.532;13.352;2022-11-06T13:54:09;14.90;;;4.57;;
41261;SDS011;29629;52.532;13.352;2022-11-06T13:56:58;25.75;;;7.40;;
41261;SDS011;29629;52.532;13.352;2022-11-06T13:59:43;16.00;;;5.43;;
41261;SDS011;29629;52.532;13.352;2022-11-06T14:02:32;10.93;;;3.90;;
41261;SDS011;29629;52.532;13.352;2022-11-06T14:05:23;15.65;;;4.65;;
41261;SDS011;29629;52.532;13.352;2022-11-06T14:08:10;11.05;;;3.42;;
41261;SDS011;29629;52.532;13.352;2022-11-06T14:10:46;10.65;;;3.15;;
41261;SDS011;29629;52.532;13.352;2022-11-06T14:13:17;16.90;;;4.43;;
41261;SDS011;29629;52.532;13.352;2022-11-06T14:15:50;7.75;;;2.88;;
41261;SDS011;29629;52.532;13.352;2022-11-06T14:18:26;12.80;;;4.65;;
41261;SDS011;29629;52.532;13.352;2022-11-06T14:24:13;17.08;;;5.32;;
41261;SDS011;29629;52.532;13.352;2022-11-06T14:26:57;9.30;;;3.60;;
41261;SDS011;29629;52.532;13.352;2022-11-06T14:29:40;11.73;;;3.72;;
41261;SDS011;29629;52.532;13.352;2022-11-06T14:32:31;11.52;;;3.97;;
41261;SDS011;29629;52.532;13.352;2022-11-06T14:38:16;39.08;;;10.18;;
41261;SDS011;29629;52.532;13.352;2022-11-06T14:40:58;27.20;;;7.30;;
41261;SDS011;29629;52.532;13.352;2022-11-06T14:43:26;28.83;;;7.38;;
41261;SDS011;29629;52.532;13.352;2022-11-06T14:45:56;30.20;;;7.88;;
41261;SDS011;29629;52.532;13.352;2022-11-06T14:48:30;30.17;;;8.60;;
41261;SDS011;29629;52.532;13.352;2022-11-06T14:50:59;35.72;;;9.30;;
41261;SDS011;29629;52.532;13.352;2022-11-06T14:53:30;31.48;;;8.25;;
41261;SDS011;29629;52.532;13.352;2022-11-06T14:56:00;33.42;;;8.32;;
41261;SDS011;29629;52.532;13.352;2022-11-06T14:58:29;14.63;;;4.78;;
41261;SDS011;29629;52.532;13.352;2022-11-06T15:00:59;27.30;;;8.00;;
41261;SDS011;29629;52.532;13.352;2022-11-06T15:03:41;14.88;;;4.70;;